sensor_id;sensor_type;location;lat;lon;timestamp;temperature;humidity
22984;DHT22;11658;48.908;9.140;2022-09-21T03:02:22;6.20;99.90
22984;DHT22;11658;48.908;9.140;2022-09-21T03:04:48;6.20;99.90
22984;DHT22;11658;48.908;9.140;2022-09-21T03:07:17;6.20;99.90
22984;DHT22;11658;48.908;9.140;2022-09-21T03:09:43;6.10;99.90
22984;DHT22;11658;48.908;9.140;2022-09-21T03:12:09;6.10;99.90
22984;DHT22;11658;48.908;9.140;2022-09-21T03:14:34;6.10;99.90
22984;DHT22;11658;48.908;9.140;2022-09-21T03:17:00;6.00;99.90
22984;DHT22;11658;48.908;9.140;2022-09-21T03:19:26;5.90;99.90
22984;DHT22;11658;48.908;9.140;2022-09-21T03:21:53;5.80;99.90
22984;DHT22;11658;48.908;9.140;2022-09-21T03:24:19;5.70;99.90
22984;DHT22;11658;48.908;9.140;2022-09-21T03:27:05;5.50;99.90
22984;DHT22;11658;48.908;9.140;2022-09-21T03:29:31;5.40;99.90
22984;DHT22;11658;48.908;9.140;2022-09-21T03:31:57;5.40;99.90
22984;DHT22;11658;48.908;9.140;2022-09-21T03:34:22;5.40;99.90
22984;DHT22;11658;48.908;9.140;2022-09-21T03:36:48;5.40;99.90
22984;DHT22;11658;48.908;9.140;2022-09-21T03:39:14;5.30;99.90
22984;DHT22;11658;48.908;9.140;2022-09-21T03:41:39;5.20;99.90
22984;DHT22;11658;48.908;9.140;2022-09-21T03:44:05;5.20;99.90
22984;DHT22;11658;48.908;9.140;2022-09-21T03:46:31;5.10;99.90
22984;DHT22;11658;48.908;9.140;2022-09-21T03:49:00;5.00;99.90
22984;DHT22;11658;48.908;9.140;2022-09-21T03:51:25;5.00;99.90
22984;DHT22;11658;48.908;9.140;2022-09-21T03:53:51;5.00;99.90
22984;DHT22;11658;48.908;9.140;2022-09-21T03:56:17;5.00;99.90
22984;DHT22;11658;48.908;9.140;2022-09-21T03:58:42;5.00;99.90
22984;DHT22;11658;48.908;9.140;2022-09-21T04:01:08;5.10;99.90
22984;DHT22;11658;48.908;9.140;2022-09-21T04:03:34;5.10;99.90
22984;DHT22;11658;48.908;9.140;2022-09-21T04:05:59;5.10;99.90
22984;DHT22;11658;48.908;9.140;2022-09-21T04:08:26;5.20;99.90
22984;DHT22;11658;48.908;9.140;2022-09-21T04:10:51;5.10;99.90
22984;DHT22;11658;48.908;9.140;2022-09-21T04:13:17;5.20;99.90
22984;DHT22;11658;48.908;9.140;2022-09-21T04:15:42;5.20;99.90
22984;DHT22;11658;48.908;9.140;2022-09-21T04:18:08;5.20;99.90
22984;DHT22;11658;48.908;9.140;2022-09-21T04:20:33;5.20;99.90
22984;DHT22;11658;48.908;9.140;2022-09-21T04:22:59;5.30;99.90
22984;DHT22;11658;48.908;9.140;2022-09-21T04:25:24;5.30;99.90
22984;DHT22;11658;48.908;9.140;2022-09-21T04:27:50;5.40;99.90
22984;DHT22;11658;48.908;9.140;2022-09-21T04:30:16;5.40;99.90
22984;DHT22;11658;48.908;9.140;2022-09-21T04:32:42;5.50;99.90
22984;DHT22;11658;48.908;9.140;2022-09-21T04:35:08;5.50;99.90
22984;DHT22;11658;48.908;9.140;2022-09-21T04:37:34;5.50;99.90
22984;DHT22;11658;48.908;9.140;2022-09-21T04:39:59;5.60;99.90
22984;DHT22;11658;48.908;9.140;2022-09-21T04:42:25;5.60;99.90
22984;DHT22;11658;48.908;9.140;2022-09-21T04:44:51;5.60;99.90
22984;DHT22;11658;48.908;9.140;2022-09-21T04:47:17;5.60;99.90
22984;DHT22;11658;48.908;9.140;2022-09-21T04:49:43;5.60;99.90
22984;DHT22;11658;48.908;9.140;2022-09-21T04:52:09;5.60;99.90
22984;DHT22;11658;48.908;9.140;2022-09-21T04:54:34;5.50;99.90
22984;DHT22;11658;48.908;9.140;2022-09-21T04:57:00;5.50;99.90
22984;DHT22;11658;48.908;9.140;2022-09-21T04:59:25;5.50;99.90
22984;DHT22;11658;48.908;9.140;2022-09-21T05:01:51;5.50;99.90
22984;DHT22;11658;48.908;9.140;2022-09-21T05:04:17;5.40;99.90
22984;DHT22;11658;48.908;9.140;2022-09-21T05:06:42;5.40;99.90
22984;DHT22;11658;48.908;9.140;2022-09-21T05:09:08;5.40;99.90
22984;DHT22;11658;48.908;9.140;2022-09-21T05:11:52;5.40;99.90
22984;DHT22;11658;48.908;9.140;2022-09-21T05:14:18;5.40;99.90
22984;DHT22;11658;48.908;9.140;2022-09-21T05:16:44;5.50;99.90
22984;DHT22;11658;48.908;9.140;2022-09-21T05:19:11;5.70;99.90
22984;DHT22;11658;48.908;9.140;2022-09-21T05:21:38;5.80;99.90
22984;DHT22;11658;48.908;9.140;2022-09-21T05:24:04;5.80;99.90
22984;DHT22;11658;48.908;9.140;2022-09-21T05:26:30;5.80;99.90
22984;DHT22;11658;48.908;9.140;2022-09-21T05:28:55;5.70;99.90
22984;DHT22;11658;48.908;9.140;2022-09-21T05:31:34;5.70;99.90
22984;DHT22;11658;48.908;9.140;2022-09-21T05:39:35;5.80;99.90
22984;DHT22;11658;48.908;9.140;2022-09-21T05:42:01;5.70;99.90
22984;DHT22;11658;48.908;9.140;2022-09-21T05:44:27;5.80;99.90
22984;DHT22;11658;48.908;9.140;2022-09-21T05:49:53;5.80;99.90
22984;DHT22;11658;48.908;9.140;2022-09-21T05:55:44;5.90;99.90
22984;DHT22;11658;48.908;9.140;2022-09-21T06:01:17;6.10;99.90
22984;DHT22;11658;48.908;9.140;2022-09-21T06:03:44;6.10;99.90
22984;DHT22;11658;48.908;9.140;2022-09-21T06:06:12;6.20;99.90
22984;DHT22;11658;48.908;9.140;2022-09-21T06:08:38;6.30;99.90
22984;DHT22;11658;48.908;9.140;2022-09-21T06:11:04;6.30;99.90
22984;DHT22;11658;48.908;9.140;2022-09-21T06:13:29;6.30;99.90
22984;DHT22;11658;48.908;9.140;2022-09-21T06:15:55;6.40;99.90
22984;DHT22;11658;48.908;9.140;2022-09-21T06:18:21;6.50;99.90
22984;DHT22;11658;48.908;9.140;2022-09-21T06:20:47;6.50;99.90
22984;DHT22;11658;48.908;9.140;2022-09-21T06:23:13;6.60;99.90
22984;DHT22;11658;48.908;9.140;2022-09-21T06:25:39;6.60;99.90
22984;DHT22;11658;48.908;9.140;2022-09-21T06:28:09;6.60;99.90
22984;DHT22;11658;48.908;9.140;2022-09-21T06:30:36;6.70;99.90
22984;DHT22;11658;48.908;9.140;2022-09-21T06:33:03;6.80;99.90
22984;DHT22;11658;48.908;9.140;2022-09-21T06:35:30;6.80;99.90
22984;DHT22;11658;48.908;9.140;2022-09-21T06:37:57;6.80;99.90
22984;DHT22;11658;48.908;9.140;2022-09-21T06:40:23;6.80;99.90
22984;DHT22;11658;48.908;9.140;2022-09-21T06:42:49;6.80;99.90
22984;DHT22;11658;48.908;9.140;2022-09-21T06:45:19;7.00;99.90
22984;DHT22;11658;48.908;9.140;2022-09-21T06:47:47;7.10;99.90
22984;DHT22;11658;48.908;9.140;2022-09-21T06:50:13;7.30;99.90
22984;DHT22;11658;48.908;9.140;2022-09-21T06:52:39;7.50;99.90
22984;DHT22;11658;48.908;9.140;2022-09-21T06:55:06;7.60;99.90
22984;DHT22;11658;48.908;9.140;2022-09-21T06:57:32;7.80;99.90
22984;DHT22;11658;48.908;9.140;2022-09-21T06:59:58;7.90;99.90
22984;DHT22;11658;48.908;9.140;2022-09-21T07:02:23;8.00;99.90
22984;DHT22;11658;48.908;9.140;2022-09-21T07:04:49;8.10;99.90
22984;DHT22;11658;48.908;9.140;2022-09-21T07:07:14;8.20;99.90
22984;DHT22;11658;48.908;9.140;2022-09-21T07:09:40;8.30;99.90
22984;DHT22;11658;48.908;9.140;2022-09-21T07:12:06;8.30;99.90
22984;DHT22;11658;48.908;9.140;2022-09-21T07:14:32;8.30;99.90
22984;DHT22;11658;48.908;9.140;2022-09-21T07:16:58;8.40;99.90
22984;DHT22;11658;48.908;9.140;2022-09-21T07:19:24;8.40;99.90
22984;DHT22;11658;48.908;9.140;2022-09-21T07:21:52;8.50;99.90
22984;DHT22;11658;48.908;9.140;2022-09-21T07:24:18;8.70;99.90
22984;DHT22;11658;48.908;9.140;2022-09-21T07:26:43;8.80;99.90
22984;DHT22;11658;48.908;9.140;2022-09-21T07:29:09;8.90;99.90
22984;DHT22;11658;48.908;9.140;2022-09-21T07:31:35;8.90;99.90
22984;DHT22;11658;48.908;9.140;2022-09-21T07:34:00;8.90;99.90
22984;DHT22;11658;48.908;9.140;2022-09-21T07:36:26;9.10;99.90
22984;DHT22;11658;48.908;9.140;2022-09-21T07:38:52;9.20;99.90
22984;DHT22;11658;48.908;9.140;2022-09-21T07:41:18;9.40;99.90
22984;DHT22;11658;48.908;9.140;2022-09-21T07:43:44;9.40;99.90
22984;DHT22;11658;48.908;9.140;2022-09-21T07:46:11;9.50;99.90
22984;DHT22;11658;48.908;9.140;2022-09-21T07:48:38;9.60;99.90
22984;DHT22;11658;48.908;9.140;2022-09-21T07:51:06;9.80;99.90
22984;DHT22;11658;48.908;9.140;2022-09-21T07:53:36;9.80;99.90
22984;DHT22;11658;48.908;9.140;2022-09-21T07:56:04;9.80;99.90
22984;DHT22;11658;48.908;9.140;2022-09-21T07:58:31;9.80;99.90
22984;DHT22;11658;48.908;9.140;2022-09-21T08:01:15;9.90;99.90
22984;DHT22;11658;48.908;9.140;2022-09-21T08:03:41;9.90;99.90
22984;DHT22;11658;48.908;9.140;2022-09-21T08:06:07;10.10;99.90
22984;DHT22;11658;48.908;9.140;2022-09-21T08:08:34;10.30;99.90
22984;DHT22;11658;48.908;9.140;2022-09-21T08:11:03;10.50;99.90
22984;DHT22;11658;48.908;9.140;2022-09-21T08:13:29;10.70;99.90
22984;DHT22;11658;48.908;9.140;2022-09-21T08:16:02;10.90;99.90
22984;DHT22;11658;48.908;9.140;2022-09-21T08:18:28;10.90;99.90
22984;DHT22;11658;48.908;9.140;2022-09-21T08:20:55;10.80;99.90
22984;DHT22;11658;48.908;9.140;2022-09-21T08:23:21;10.80;99.90
22984;DHT22;11658;48.908;9.140;2022-09-21T08:25:47;10.80;99.90
22984;DHT22;11658;48.908;9.140;2022-09-21T08:28:13;10.90;99.90
22984;DHT22;11658;48.908;9.140;2022-09-21T08:30:40;11.00;99.90
22984;DHT22;11658;48.908;9.140;2022-09-21T08:33:06;11.10;99.90
22984;DHT22;11658;48.908;9.140;2022-09-21T08:35:32;11.10;99.90
22984;DHT22;11658;48.908;9.140;2022-09-21T08:37:59;11.30;99.90
22984;DHT22;11658;48.908;9.140;2022-09-21T08:40:24;11.50;99.90
22984;DHT22;11658;48.908;9.140;2022-09-21T08:42:59;11.50;99.90
22984;DHT22;11658;48.908;9.140;2022-09-21T08:45:31;11.50;99.90
22984;DHT22;11658;48.908;9.140;2022-09-21T08:47:58;11.50;99.90
22984;DHT22;11658;48.908;9.140;2022-09-21T08:50:36;11.60;99.90
22984;DHT22;11658;48.908;9.140;2022-09-21T08:53:12;11.60;99.90
22984;DHT22;11658;48.908;9.140;2022-09-21T08:55:38;11.70;99.90
22984;DHT22;11658;48.908;9.140;2022-09-21T08:58:24;11.70;99.90
22984;DHT22;11658;48.908;9.140;2022-09-21T09:01:32;11.80;99.90
22984;DHT22;11658;48.908;9.140;2022-09-21T09:17:08;12.30;99.90
22984;DHT22;11658;48.908;9.140;2022-09-21T09:22:25;12.30;99.90
22984;DHT22;11658;48.908;9.140;2022-09-21T09:24:57;12.40;99.90
22984;DHT22;11658;48.908;9.140;2022-09-21T09:27:33;12.50;99.90
22984;DHT22;11658;48.908;9.140;2022-09-21T09:32:47;12.80;99.90
22984;DHT22;11658;48.908;9.140;2022-09-21T09:37:49;12.90;99.90
22984;DHT22;11658;48.908;9.140;2022-09-21T09:40:22;13.00;99.90
22984;DHT22;11658;48.908;9.140;2022-09-21T09:42:59;13.00;99.90
22984;DHT22;11658;48.908;9.140;2022-09-21T09:50:39;13.50;99.90
22984;DHT22;11658;48.908;9.140;2022-09-21T09:53:15;13.70;99.90
22984;DHT22;11658;48.908;9.140;2022-09-21T09:58:40;13.80;99.90
22984;DHT22;11658;48.908;9.140;2022-09-21T10:01:06;13.80;99.90
22984;DHT22;11658;48.908;9.140;2022-09-21T10:03:32;13.80;99.90
22984;DHT22;11658;48.908;9.140;2022-09-21T10:05:58;13.90;99.90
22984;DHT22;11658;48.908;9.140;2022-09-21T10:11:02;13.90;99.90
22984;DHT22;11658;48.908;9.140;2022-09-21T10:13:29;14.20;99.90
22984;DHT22;11658;48.908;9.140;2022-09-21T10:16:01;14.10;99.90
22984;DHT22;11658;48.908;9.140;2022-09-21T10:21:25;14.20;99.90
22984;DHT22;11658;48.908;9.140;2022-09-21T10:23:56;14.40;99.90
22984;DHT22;11658;48.908;9.140;2022-09-21T10:26:23;14.70;99.90
22984;DHT22;11658;48.908;9.140;2022-09-21T10:28:58;14.80;99.90
22984;DHT22;11658;48.908;9.140;2022-09-21T10:31:26;14.90;99.90
22984;DHT22;11658;48.908;9.140;2022-09-21T10:36:33;15.50;99.90
22984;DHT22;11658;48.908;9.140;2022-09-21T10:39:28;15.40;99.90
22984;DHT22;11658;48.908;9.140;2022-09-21T10:44:32;15.10;99.90
22984;DHT22;11658;48.908;9.140;2022-09-21T10:47:11;15.10;99.90
22984;DHT22;11658;48.908;9.140;2022-09-21T10:49:44;15.20;99.90
22984;DHT22;11658;48.908;9.140;2022-09-21T10:52:11;15.00;99.90
22984;DHT22;11658;48.908;9.140;2022-09-21T10:54:39;14.80;99.90
22984;DHT22;11658;48.908;9.140;2022-09-21T10:57:14;14.60;99.90
22984;DHT22;11658;48.908;9.140;2022-09-21T10:59:40;14.60;99.90
22984;DHT22;11658;48.908;9.140;2022-09-21T11:05:10;14.40;99.90
22984;DHT22;11658;48.908;9.140;2022-09-21T11:08:05;14.50;99.90
22984;DHT22;11658;48.908;9.140;2022-09-21T11:13:37;14.90;99.90
22984;DHT22;11658;48.908;9.140;2022-09-21T11:16:35;15.10;99.90
22984;DHT22;11658;48.908;9.140;2022-09-21T11:22:13;15.50;99.90
22984;DHT22;11658;48.908;9.140;2022-09-21T11:27:37;15.50;99.90
22984;DHT22;11658;48.908;9.140;2022-09-21T11:30:11;15.70;99.90
22984;DHT22;11658;48.908;9.140;2022-09-21T11:40:41;16.30;99.90
22984;DHT22;11658;48.908;9.140;2022-09-21T11:54:41;17.10;99.90
22984;DHT22;11658;48.908;9.140;2022-09-21T11:57:26;17.10;99.90
22984;DHT22;11658;48.908;9.140;2022-09-21T12:19:14;17.40;99.90
22984;DHT22;11658;48.908;9.140;2022-09-21T12:21:47;17.60;99.90
22984;DHT22;11658;48.908;9.140;2022-09-21T12:24:20;17.40;99.90
22984;DHT22;11658;48.908;9.140;2022-09-21T12:26:52;16.90;99.90
22984;DHT22;11658;48.908;9.140;2022-09-21T12:29:34;16.60;99.90
22984;DHT22;11658;48.908;9.140;2022-09-21T12:34:48;16.00;99.90
22984;DHT22;11658;48.908;9.140;2022-09-21T12:37:35;16.00;99.90
22984;DHT22;11658;48.908;9.140;2022-09-21T12:40:35;16.00;99.90
22984;DHT22;11658;48.908;9.140;2022-09-21T12:43:07;16.20;99.90
22984;DHT22;11658;48.908;9.140;2022-09-21T12:45:43;16.40;99.90
22984;DHT22;11658;48.908;9.140;2022-09-21T12:50:46;16.40;99.90
22984;DHT22;11658;48.908;9.140;2022-09-21T12:53:19;16.40;99.90
22984;DHT22;11658;48.908;9.140;2022-09-21T13:04:26;17.00;99.90
22984;DHT22;11658;48.908;9.140;2022-09-21T13:07:37;17.10;99.90
22984;DHT22;11658;48.908;9.140;2022-09-21T13:09:58;17.70;99.90
22984;DHT22;11658;48.908;9.140;2022-09-21T13:12:29;18.10;99.90
22984;DHT22;11658;48.908;9.140;2022-09-21T13:15:12;18.20;99.90
22984;DHT22;11658;48.908;9.140;2022-09-21T13:17:39;18.10;99.90
22984;DHT22;11658;48.908;9.140;2022-09-21T13:20:18;17.80;99.90
22984;DHT22;11658;48.908;9.140;2022-09-21T13:22:45;17.50;99.90
22984;DHT22;11658;48.908;9.140;2022-09-21T13:25:24;17.40;99.90
22984;DHT22;11658;48.908;9.140;2022-09-21T13:27:59;17.60;99.90
22984;DHT22;11658;48.908;9.140;2022-09-21T13:33:01;17.00;99.90
22984;DHT22;11658;48.908;9.140;2022-09-21T13:54:20;17.50;99.90
22984;DHT22;11658;48.908;9.140;2022-09-21T13:59:42;16.70;99.90
22984;DHT22;11658;48.908;9.140;2022-09-21T14:02:28;16.70;99.90
22984;DHT22;11658;48.908;9.140;2022-09-21T14:05:18;16.70;99.90
22984;DHT22;11658;48.908;9.140;2022-09-21T14:10:37;16.20;99.90
22984;DHT22;11658;48.908;9.140;2022-09-21T14:13:06;15.90;99.90
22984;DHT22;11658;48.908;9.140;2022-09-21T14:15:46;15.80;99.90
22984;DHT22;11658;48.908;9.140;2022-09-21T14:21:13;15.70;99.90
22984;DHT22;11658;48.908;9.140;2022-09-21T14:24:07;15.70;99.90
22984;DHT22;11658;48.908;9.140;2022-09-21T14:31:47;16.40;99.90
22984;DHT22;11658;48.908;9.140;2022-09-21T14:34:19;16.40;99.90
22984;DHT22;11658;48.908;9.140;2022-09-21T14:36:48;16.50;99.90
22984;DHT22;11658;48.908;9.140;2022-09-21T14:39:30;16.70;99.90
22984;DHT22;11658;48.908;9.140;2022-09-21T14:42:01;16.80;99.90
22984;DHT22;11658;48.908;9.140;2022-09-21T14:44:29;16.70;99.90
22984;DHT22;11658;48.908;9.140;2022-09-21T14:50:19;16.70;99.90
22984;DHT22;11658;48.908;9.140;2022-09-21T14:58:28;17.00;99.90
22984;DHT22;11658;48.908;9.140;2022-09-21T15:01:19;17.10;99.90
22984;DHT22;11658;48.908;9.140;2022-09-21T15:09:44;16.70;99.90
22984;DHT22;11658;48.908;9.140;2022-09-21T15:12:54;16.50;99.90
22984;DHT22;11658;48.908;9.140;2022-09-21T15:18:01;16.20;99.90
22984;DHT22;11658;48.908;9.140;2022-09-21T15:20:30;16.20;99.90
22984;DHT22;11658;48.908;9.140;2022-09-21T15:22:57;16.20;99.90
22984;DHT22;11658;48.908;9.140;2022-09-21T15:25:31;16.20;99.90
22984;DHT22;11658;48.908;9.140;2022-09-21T15:27:57;16.30;99.90
22984;DHT22;11658;48.908;9.140;2022-09-21T15:30:26;16.30;99.90
22984;DHT22;11658;48.908;9.140;2022-09-21T15:32:55;16.30;99.90
22984;DHT22;11658;48.908;9.140;2022-09-21T15:35:24;16.30;99.90
22984;DHT22;11658;48.908;9.140;2022-09-21T15:37:54;16.30;99.90
22984;DHT22;11658;48.908;9.140;2022-09-21T15:40:23;16.30;99.90
22984;DHT22;11658;48.908;9.140;2022-09-21T15:48:16;16.10;99.90
22984;DHT22;11658;48.908;9.140;2022-09-21T15:50:43;16.10;99.90
22984;DHT22;11658;48.908;9.140;2022-09-21T15:53:27;16.20;99.90
22984;DHT22;11658;48.908;9.140;2022-09-21T15:55:54;16.20;99.90
22984;DHT22;11658;48.908;9.140;2022-09-21T16:00:54;16.30;99.90
22984;DHT22;11658;48.908;9.140;2022-09-21T16:03:22;16.20;99.90
22984;DHT22;11658;48.908;9.140;2022-09-21T16:05:52;16.20;99.90
22984;DHT22;11658;48.908;9.140;2022-09-21T16:08:34;16.20;99.90
22984;DHT22;11658;48.908;9.140;2022-09-21T16:13:45;16.00;99.90
22984;DHT22;11658;48.908;9.140;2022-09-21T16:16:30;15.90;99.90
22984;DHT22;11658;48.908;9.140;2022-09-21T16:18:57;15.90;99.90
22984;DHT22;11658;48.908;9.140;2022-09-21T16:21:32;15.80;99.90
22984;DHT22;11658;48.908;9.140;2022-09-21T16:24:28;15.80;99.90
22984;DHT22;11658;48.908;9.140;2022-09-21T16:27:00;15.80;99.90
22984;DHT22;11658;48.908;9.140;2022-09-21T16:29:37;15.70;99.90
22984;DHT22;11658;48.908;9.140;2022-09-21T16:34:48;15.70;99.90
22984;DHT22;11658;48.908;9.140;2022-09-21T16:39:54;15.60;99.90
22984;DHT22;11658;48.908;9.140;2022-09-21T16:42:21;15.50;99.90
22984;DHT22;11658;48.908;9.140;2022-09-21T16:44:47;15.50;99.90
22984;DHT22;11658;48.908;9.140;2022-09-21T16:47:22;15.40;99.90
22984;DHT22;11658;48.908;9.140;2022-09-21T16:52:22;15.40;99.90
22984;DHT22;11658;48.908;9.140;2022-09-21T16:54:48;15.30;99.90
22984;DHT22;11658;48.908;9.140;2022-09-21T16:57:15;15.30;99.90
22984;DHT22;11658;48.908;9.140;2022-09-21T16:59:41;15.30;99.90
22984;DHT22;11658;48.908;9.140;2022-09-21T17:02:09;15.20;99.90
22984;DHT22;11658;48.908;9.140;2022-09-21T17:04:38;15.10;99.90
22984;DHT22;11658;48.908;9.140;2022-09-21T17:07:04;14.90;99.90
22984;DHT22;11658;48.908;9.140;2022-09-21T17:09:36;14.70;99.90
22984;DHT22;11658;48.908;9.140;2022-09-21T17:12:07;14.60;99.90
22984;DHT22;11658;48.908;9.140;2022-09-21T17:14:34;14.40;99.90
22984;DHT22;11658;48.908;9.140;2022-09-21T17:17:12;14.30;99.90
22984;DHT22;11658;48.908;9.140;2022-09-21T17:19:40;14.20;99.90
22984;DHT22;11658;48.908;9.140;2022-09-21T17:22:08;14.10;99.90
22984;DHT22;11658;48.908;9.140;2022-09-21T17:24:50;13.90;99.90
22984;DHT22;11658;48.908;9.140;2022-09-21T17:27:17;13.80;99.90
22984;DHT22;11658;48.908;9.140;2022-09-21T17:29:44;13.70;99.90
22984;DHT22;11658;48.908;9.140;2022-09-21T17:32:18;13.70;99.90
22984;DHT22;11658;48.908;9.140;2022-09-21T17:34:45;13.60;99.90
22984;DHT22;11658;48.908;9.140;2022-09-21T17:37:11;13.50;99.90
22984;DHT22;11658;48.908;9.140;2022-09-21T17:39:37;13.50;99.90
22984;DHT22;11658;48.908;9.140;2022-09-21T17:42:22;13.40;99.90
22984;DHT22;11658;48.908;9.140;2022-09-21T17:47:37;13.30;99.90
22984;DHT22;11658;48.908;9.140;2022-09-21T17:52:35;13.10;99.90
22984;DHT22;11658;48.908;9.140;2022-09-21T17:55:20;13.00;99.90
22984;DHT22;11658;48.908;9.140;2022-09-21T18:00:20;12.80;99.90
22984;DHT22;11658;48.908;9.140;2022-09-21T18:02:47;12.70;99.90
22984;DHT22;11658;48.908;9.140;2022-09-21T18:05:27;12.70;99.90
22984;DHT22;11658;48.908;9.140;2022-09-21T18:07:53;12.60;99.90
22984;DHT22;11658;48.908;9.140;2022-09-21T18:10:21;12.60;99.90
22984;DHT22;11658;48.908;9.140;2022-09-21T18:18:18;12.30;99.90
22984;DHT22;11658;48.908;9.140;2022-09-21T18:20:59;12.20;99.90
22984;DHT22;11658;48.908;9.140;2022-09-21T18:26:00;12.10;99.90
22984;DHT22;11658;48.908;9.140;2022-09-21T18:28:39;12.00;99.90
22984;DHT22;11658;48.908;9.140;2022-09-21T18:40:23;11.50;99.90
22984;DHT22;11658;48.908;9.140;2022-09-21T18:45:45;11.30;99.90
22984;DHT22;11658;48.908;9.140;2022-09-21T18:53:51;11.10;99.90
22984;DHT22;11658;48.908;9.140;2022-09-21T18:56:18;11.10;99.90
22984;DHT22;11658;48.908;9.140;2022-09-21T18:58:44;11.00;99.90
22984;DHT22;11658;48.908;9.140;2022-09-21T19:01:11;10.90;99.90
22984;DHT22;11658;48.908;9.140;2022-09-21T19:03:39;10.90;99.90
22984;DHT22;11658;48.908;9.140;2022-09-21T19:06:10;10.80;99.90
22984;DHT22;11658;48.908;9.140;2022-09-21T19:11:25;10.70;99.90
22984;DHT22;11658;48.908;9.140;2022-09-21T19:19:28;10.50;99.90
22984;DHT22;11658;48.908;9.140;2022-09-21T19:22:21;10.50;99.90
22984;DHT22;11658;48.908;9.140;2022-09-21T19:27:42;10.40;99.90
22984;DHT22;11658;48.908;9.140;2022-09-21T19:30:15;10.40;99.90
22984;DHT22;11658;48.908;9.140;2022-09-21T19:32:52;10.50;99.90
22984;DHT22;11658;48.908;9.140;2022-09-21T19:35:22;10.50;99.90
22984;DHT22;11658;48.908;9.140;2022-09-21T19:37:55;10.50;99.90
22984;DHT22;11658;48.908;9.140;2022-09-21T19:40:26;10.40;99.90
22984;DHT22;11658;48.908;9.140;2022-09-21T19:48:44;10.30;99.90
22984;DHT22;11658;48.908;9.140;2022-09-21T19:51:17;10.70;99.90
22984;DHT22;11658;48.908;9.140;2022-09-21T19:53:44;10.10;99.90
22984;DHT22;11658;48.908;9.140;2022-09-21T19:56:31;10.10;99.90
22984;DHT22;11658;48.908;9.140;2022-09-21T19:59:16;10.00;99.90
22984;DHT22;11658;48.908;9.140;2022-09-21T20:02:01;10.10;99.90
22984;DHT22;11658;48.908;9.140;2022-09-21T20:04:56;10.10;99.90
22984;DHT22;11658;48.908;9.140;2022-09-21T20:15:46;10.30;99.90
22984;DHT22;11658;48.908;9.140;2022-09-21T20:20:47;10.20;99.90
22984;DHT22;11658;48.908;9.140;2022-09-21T20:23:12;10.10;99.90
22984;DHT22;11658;48.908;9.140;2022-09-21T20:25:57;10.20;99.90
22984;DHT22;11658;48.908;9.140;2022-09-21T20:28:25;10.10;99.90
22984;DHT22;11658;48.908;9.140;2022-09-21T20:30:51;10.20;99.90
22984;DHT22;11658;48.908;9.140;2022-09-21T20:33:19;10.20;99.90
22984;DHT22;11658;48.908;9.140;2022-09-21T20:35:49;10.20;99.90
22984;DHT22;11658;48.908;9.140;2022-09-21T20:38:17;10.10;99.90
22984;DHT22;11658;48.908;9.140;2022-09-21T20:40:43;10.10;99.90
22984;DHT22;11658;48.908;9.140;2022-09-21T20:43:10;10.00;99.90
22984;DHT22;11658;48.908;9.140;2022-09-21T20:45:36;10.00;99.90
22984;DHT22;11658;48.908;9.140;2022-09-21T20:48:03;10.00;99.90
22984;DHT22;11658;48.908;9.140;2022-09-21T20:50:41;9.90;99.90
22984;DHT22;11658;48.908;9.140;2022-09-21T20:53:08;9.90;99.90
22984;DHT22;11658;48.908;9.140;2022-09-21T20:55:34;9.80;99.90
22984;DHT22;11658;48.908;9.140;2022-09-21T20:57:59;9.80;99.90
22984;DHT22;11658;48.908;9.140;2022-09-21T21:00:25;9.80;99.90
22984;DHT22;11658;48.908;9.140;2022-09-21T21:02:50;9.80;99.90
22984;DHT22;11658;48.908;9.140;2022-09-21T21:05:16;9.70;99.90
22984;DHT22;11658;48.908;9.140;2022-09-21T21:07:43;9.70;99.90
22984;DHT22;11658;48.908;9.140;2022-09-21T21:10:09;9.60;99.90
22984;DHT22;11658;48.908;9.140;2022-09-21T21:12:39;9.50;99.90
22984;DHT22;11658;48.908;9.140;2022-09-21T21:15:06;9.40;99.90
22984;DHT22;11658;48.908;9.140;2022-09-21T21:17:32;9.40;99.90
22984;DHT22;11658;48.908;9.140;2022-09-21T21:20:00;9.40;99.90
22984;DHT22;11658;48.908;9.140;2022-09-21T21:22:26;9.40;99.90
22984;DHT22;11658;48.908;9.140;2022-09-21T21:24:52;9.40;99.90
22984;DHT22;11658;48.908;9.140;2022-09-21T21:27:19;9.30;99.90
22984;DHT22;11658;48.908;9.140;2022-09-21T21:29:48;9.20;99.90
22984;DHT22;11658;48.908;9.140;2022-09-21T21:32:15;9.20;99.90
22984;DHT22;11658;48.908;9.140;2022-09-21T21:34:42;9.30;99.90
22984;DHT22;11658;48.908;9.140;2022-09-21T21:37:09;9.20;99.90
22984;DHT22;11658;48.908;9.140;2022-09-21T21:39:35;9.20;99.90
22984;DHT22;11658;48.908;9.140;2022-09-21T21:42:00;9.20;99.90
22984;DHT22;11658;48.908;9.140;2022-09-21T21:44:26;9.20;99.90
22984;DHT22;11658;48.908;9.140;2022-09-21T21:46:52;9.10;99.90
22984;DHT22;11658;48.908;9.140;2022-09-21T21:49:19;9.10;99.90
22984;DHT22;11658;48.908;9.140;2022-09-21T21:51:44;9.00;99.90
22984;DHT22;11658;48.908;9.140;2022-09-21T21:54:10;8.90;99.90
22984;DHT22;11658;48.908;9.140;2022-09-21T21:56:36;8.80;99.90
22984;DHT22;11658;48.908;9.140;2022-09-21T21:59:02;8.80;99.90
